sensor_id;sensor_type;location;lat;lon;timestamp;P1;durP1;ratioP1;P2;durP2;ratioP2
29344;SDS011;16339;48.748;2.222;2022-08-19T00:02:08;11.43;;;6.85;;
29344;SDS011;16339;48.748;2.222;2022-08-19T00:04:37;9.52;;;6.93;;
29344;SDS011;16339;48.748;2.222;2022-08-19T00:07:06;15.23;;;6.55;;
29344;SDS011;16339;48.748;2.222;2022-08-19T00:09:35;12.68;;;6.97;;
29344;SDS011;16339;48.748;2.222;2022-08-19T00:12:06;11.63;;;6.28;;
29344;SDS011;16339;48.748;2.222;2022-08-19T00:14:35;12.60;;;6.55;;
29344;SDS011;16339;48.748;2.222;2022-08-19T00:17:06;11.05;;;6.40;;
29344;SDS011;16339;48.748;2.222;2022-08-19T00:19:36;15.40;;;7.05;;
29344;SDS011;16339;48.748;2.222;2022-08-19T00:22:05;18.75;;;7.20;;
29344;SDS011;16339;48.748;2.222;2022-08-19T00:24:34;16.05;;;6.70;;
29344;SDS011;16339;48.748;2.222;2022-08-19T00:27:06;16.42;;;6.68;;
29344;SDS011;16339;48.748;2.222;2022-08-19T00:29:35;12.48;;;6.88;;
29344;SDS011;16339;48.748;2.222;2022-08-19T00:32:04;12.82;;;7.20;;
29344;SDS011;16339;48.748;2.222;2022-08-19T00:34:33;14.07;;;7.80;;
29344;SDS011;16339;48.748;2.222;2022-08-19T00:37:02;16.73;;;7.53;;
29344;SDS011;16339;48.748;2.222;2022-08-19T00:39:31;12.85;;;6.93;;
29344;SDS011;16339;48.748;2.222;2022-08-19T00:41:59;12.43;;;6.65;;
29344;SDS011;16339;48.748;2.222;2022-08-19T00:44:34;10.65;;;6.18;;
29344;SDS011;16339;48.748;2.222;2022-08-19T00:47:03;8.85;;;5.65;;
29344;SDS011;16339;48.748;2.222;2022-08-19T00:49:34;16.92;;;6.10;;
29344;SDS011;16339;48.748;2.222;2022-08-19T00:52:06;13.85;;;6.53;;
29344;SDS011;16339;48.748;2.222;2022-08-19T00:54:37;13.55;;;6.65;;
29344;SDS011;16339;48.748;2.222;2022-08-19T00:57:09;9.30;;;6.28;;
29344;SDS011;16339;48.748;2.222;2022-08-19T00:59:44;16.00;;;6.20;;
29344;SDS011;16339;48.748;2.222;2022-08-19T01:02:15;10.45;;;6.35;;
29344;SDS011;16339;48.748;2.222;2022-08-19T01:04:44;15.73;;;7.10;;
29344;SDS011;16339;48.748;2.222;2022-08-19T01:07:13;13.32;;;7.15;;
29344;SDS011;16339;48.748;2.222;2022-08-19T01:09:42;18.52;;;7.35;;
29344;SDS011;16339;48.748;2.222;2022-08-19T01:12:11;10.80;;;6.72;;
29344;SDS011;16339;48.748;2.222;2022-08-19T01:14:39;11.63;;;6.65;;
29344;SDS011;16339;48.748;2.222;2022-08-19T01:17:11;12.68;;;6.82;;
29344;SDS011;16339;48.748;2.222;2022-08-19T01:19:41;11.23;;;7.10;;
29344;SDS011;16339;48.748;2.222;2022-08-19T01:24:45;9.73;;;6.70;;
29344;SDS011;16339;48.748;2.222;2022-08-19T01:29:42;12.23;;;7.30;;
29344;SDS011;16339;48.748;2.222;2022-08-19T01:32:13;11.63;;;7.13;;
29344;SDS011;16339;48.748;2.222;2022-08-19T01:34:44;13.10;;;7.50;;
29344;SDS011;16339;48.748;2.222;2022-08-19T01:37:14;10.18;;;7.03;;
29344;SDS011;16339;48.748;2.222;2022-08-19T01:39:45;12.68;;;7.00;;
29344;SDS011;16339;48.748;2.222;2022-08-19T01:44:42;16.60;;;7.20;;
29344;SDS011;16339;48.748;2.222;2022-08-19T01:47:11;12.43;;;7.05;;
29344;SDS011;16339;48.748;2.222;2022-08-19T01:49:40;11.90;;;7.60;;
29344;SDS011;16339;48.748;2.222;2022-08-19T01:52:09;15.18;;;8.50;;
29344;SDS011;16339;48.748;2.222;2022-08-19T01:54:38;10.32;;;8.07;;
29344;SDS011;16339;48.748;2.222;2022-08-19T01:57:11;13.32;;;6.82;;
29344;SDS011;16339;48.748;2.222;2022-08-19T01:59:41;8.98;;;6.32;;
29344;SDS011;16339;48.748;2.222;2022-08-19T02:02:11;11.45;;;7.47;;
29344;SDS011;16339;48.748;2.222;2022-08-19T02:04:40;14.05;;;7.10;;
29344;SDS011;16339;48.748;2.222;2022-08-19T02:07:10;12.33;;;8.00;;
29344;SDS011;16339;48.748;2.222;2022-08-19T02:09:39;13.20;;;7.57;;
29344;SDS011;16339;48.748;2.222;2022-08-19T02:12:11;20.45;;;7.53;;
29344;SDS011;16339;48.748;2.222;2022-08-19T02:14:40;16.45;;;7.35;;
29344;SDS011;16339;48.748;2.222;2022-08-19T02:17:08;9.85;;;6.90;;
29344;SDS011;16339;48.748;2.222;2022-08-19T02:19:37;9.80;;;6.60;;
29344;SDS011;16339;48.748;2.222;2022-08-19T02:22:07;16.10;;;7.53;;
29344;SDS011;16339;48.748;2.222;2022-08-19T02:24:36;9.93;;;7.10;;
29344;SDS011;16339;48.748;2.222;2022-08-19T02:27:04;13.43;;;7.20;;
29344;SDS011;16339;48.748;2.222;2022-08-19T02:29:36;15.80;;;6.93;;
29344;SDS011;16339;48.748;2.222;2022-08-19T02:34:33;12.18;;;7.05;;
29344;SDS011;16339;48.748;2.222;2022-08-19T02:37:02;16.92;;;7.35;;
29344;SDS011;16339;48.748;2.222;2022-08-19T02:39:51;15.48;;;7.32;;
29344;SDS011;16339;48.748;2.222;2022-08-19T02:42:17;9.77;;;7.18;;
29344;SDS011;16339;48.748;2.222;2022-08-19T02:44:48;10.43;;;7.45;;
29344;SDS011;16339;48.748;2.222;2022-08-19T02:47:17;16.88;;;7.47;;
29344;SDS011;16339;48.748;2.222;2022-08-19T02:49:46;12.25;;;7.78;;
29344;SDS011;16339;48.748;2.222;2022-08-19T02:52:16;12.40;;;7.45;;
29344;SDS011;16339;48.748;2.222;2022-08-19T02:54:45;14.57;;;8.27;;
29344;SDS011;16339;48.748;2.222;2022-08-19T02:57:14;16.73;;;8.85;;
29344;SDS011;16339;48.748;2.222;2022-08-19T02:59:42;10.38;;;7.75;;
29344;SDS011;16339;48.748;2.222;2022-08-19T03:02:14;13.60;;;8.85;;
29344;SDS011;16339;48.748;2.222;2022-08-19T03:04:43;17.20;;;8.93;;
29344;SDS011;16339;48.748;2.222;2022-08-19T03:07:12;12.35;;;7.82;;
29344;SDS011;16339;48.748;2.222;2022-08-19T03:09:43;16.65;;;8.35;;
29344;SDS011;16339;48.748;2.222;2022-08-19T03:12:12;15.25;;;8.13;;
29344;SDS011;16339;48.748;2.222;2022-08-19T03:14:41;12.18;;;8.00;;
29344;SDS011;16339;48.748;2.222;2022-08-19T03:17:10;14.25;;;8.90;;
29344;SDS011;16339;48.748;2.222;2022-08-19T03:22:10;10.52;;;8.15;;
29344;SDS011;16339;48.748;2.222;2022-08-19T03:24:39;13.30;;;8.95;;
29344;SDS011;16339;48.748;2.222;2022-08-19T03:27:08;18.17;;;9.52;;
29344;SDS011;16339;48.748;2.222;2022-08-19T03:29:37;15.63;;;8.85;;
29344;SDS011;16339;48.748;2.222;2022-08-19T03:32:06;17.58;;;9.05;;
29344;SDS011;16339;48.748;2.222;2022-08-19T03:34:38;13.95;;;8.60;;
29344;SDS011;16339;48.748;2.222;2022-08-19T03:37:07;28.08;;;9.15;;
29344;SDS011;16339;48.748;2.222;2022-08-19T03:39:39;10.85;;;8.52;;
29344;SDS011;16339;48.748;2.222;2022-08-19T03:42:09;15.48;;;9.15;;
29344;SDS011;16339;48.748;2.222;2022-08-19T03:44:40;13.68;;;8.77;;
29344;SDS011;16339;48.748;2.222;2022-08-19T03:47:09;15.30;;;9.07;;
29344;SDS011;16339;48.748;2.222;2022-08-19T03:49:43;16.40;;;9.65;;
29344;SDS011;16339;48.748;2.222;2022-08-19T03:52:12;15.60;;;9.32;;
29344;SDS011;16339;48.748;2.222;2022-08-19T03:54:44;16.00;;;9.20;;
29344;SDS011;16339;48.748;2.222;2022-08-19T03:57:13;14.82;;;9.68;;
29344;SDS011;16339;48.748;2.222;2022-08-19T03:59:42;14.10;;;8.50;;
29344;SDS011;16339;48.748;2.222;2022-08-19T04:02:11;15.35;;;10.10;;
29344;SDS011;16339;48.748;2.222;2022-08-19T04:04:41;14.55;;;10.05;;
29344;SDS011;16339;48.748;2.222;2022-08-19T04:07:13;14.85;;;10.57;;
29344;SDS011;16339;48.748;2.222;2022-08-19T04:09:46;21.95;;;9.70;;
29344;SDS011;16339;48.748;2.222;2022-08-19T04:12:17;13.60;;;8.68;;
29344;SDS011;16339;48.748;2.222;2022-08-19T04:14:46;11.02;;;8.65;;
29344;SDS011;16339;48.748;2.222;2022-08-19T04:17:15;14.15;;;9.82;;
29344;SDS011;16339;48.748;2.222;2022-08-19T04:19:47;17.17;;;9.65;;
29344;SDS011;16339;48.748;2.222;2022-08-19T04:24:44;19.23;;;9.85;;
29344;SDS011;16339;48.748;2.222;2022-08-19T04:27:12;17.30;;;9.18;;
29344;SDS011;16339;48.748;2.222;2022-08-19T04:29:41;14.38;;;9.05;;
29344;SDS011;16339;48.748;2.222;2022-08-19T04:32:10;14.77;;;9.43;;
29344;SDS011;16339;48.748;2.222;2022-08-19T04:34:40;18.55;;;8.88;;
29344;SDS011;16339;48.748;2.222;2022-08-19T04:37:11;17.45;;;9.55;;
29344;SDS011;16339;48.748;2.222;2022-08-19T04:39:40;13.02;;;9.02;;
29344;SDS011;16339;48.748;2.222;2022-08-19T04:42:27;12.63;;;8.02;;
29344;SDS011;16339;48.748;2.222;2022-08-19T04:45:09;13.35;;;7.57;;
29344;SDS011;16339;48.748;2.222;2022-08-19T04:47:40;11.35;;;8.15;;
29344;SDS011;16339;48.748;2.222;2022-08-19T04:50:11;15.95;;;9.23;;
29344;SDS011;16339;48.748;2.222;2022-08-19T04:52:42;10.02;;;8.07;;
29344;SDS011;16339;48.748;2.222;2022-08-19T04:57:39;10.75;;;7.90;;
29344;SDS011;16339;48.748;2.222;2022-08-19T05:00:09;17.20;;;7.63;;
29344;SDS011;16339;48.748;2.222;2022-08-19T05:02:38;16.42;;;8.55;;
29344;SDS011;16339;48.748;2.222;2022-08-19T05:05:07;15.63;;;8.40;;
29344;SDS011;16339;48.748;2.222;2022-08-19T05:07:36;13.00;;;7.68;;
29344;SDS011;16339;48.748;2.222;2022-08-19T05:10:09;13.50;;;7.75;;
29344;SDS011;16339;48.748;2.222;2022-08-19T05:12:38;13.13;;;6.95;;
29344;SDS011;16339;48.748;2.222;2022-08-19T05:15:07;14.45;;;7.00;;
29344;SDS011;16339;48.748;2.222;2022-08-19T05:17:37;14.82;;;6.70;;
29344;SDS011;16339;48.748;2.222;2022-08-19T05:20:25;13.95;;;6.75;;
29344;SDS011;16339;48.748;2.222;2022-08-19T05:23:06;16.50;;;6.78;;
29344;SDS011;16339;48.748;2.222;2022-08-19T05:25:43;8.40;;;5.70;;
29344;SDS011;16339;48.748;2.222;2022-08-19T05:28:12;9.30;;;5.80;;
29344;SDS011;16339;48.748;2.222;2022-08-19T05:30:40;7.43;;;5.55;;
29344;SDS011;16339;48.748;2.222;2022-08-19T05:33:10;13.55;;;5.85;;
29344;SDS011;16339;48.748;2.222;2022-08-19T05:35:38;14.75;;;6.07;;
29344;SDS011;16339;48.748;2.222;2022-08-19T05:38:09;11.30;;;6.77;;
29344;SDS011;16339;48.748;2.222;2022-08-19T05:40:38;12.98;;;7.07;;
29344;SDS011;16339;48.748;2.222;2022-08-19T05:43:13;11.15;;;5.93;;
29344;SDS011;16339;48.748;2.222;2022-08-19T05:45:43;9.35;;;5.80;;
29344;SDS011;16339;48.748;2.222;2022-08-19T05:48:12;11.15;;;5.97;;
29344;SDS011;16339;48.748;2.222;2022-08-19T05:50:42;15.43;;;5.32;;
29344;SDS011;16339;48.748;2.222;2022-08-19T05:53:11;7.47;;;5.05;;
29344;SDS011;16339;48.748;2.222;2022-08-19T05:55:41;10.73;;;4.78;;
29344;SDS011;16339;48.748;2.222;2022-08-19T05:58:12;9.55;;;5.07;;
29344;SDS011;16339;48.748;2.222;2022-08-19T06:00:42;6.32;;;4.05;;
29344;SDS011;16339;48.748;2.222;2022-08-19T06:03:12;9.32;;;4.00;;
29344;SDS011;16339;48.748;2.222;2022-08-19T06:05:41;5.28;;;3.67;;
29344;SDS011;16339;48.748;2.222;2022-08-19T06:08:11;6.47;;;3.42;;
29344;SDS011;16339;48.748;2.222;2022-08-19T06:10:39;7.15;;;3.78;;
29344;SDS011;16339;48.748;2.222;2022-08-19T06:13:08;4.72;;;3.25;;
29344;SDS011;16339;48.748;2.222;2022-08-19T06:15:39;6.30;;;3.50;;
29344;SDS011;16339;48.748;2.222;2022-08-19T06:18:09;7.43;;;3.60;;
29344;SDS011;16339;48.748;2.222;2022-08-19T06:20:37;8.13;;;3.92;;
29344;SDS011;16339;48.748;2.222;2022-08-19T06:23:06;5.45;;;3.47;;
29344;SDS011;16339;48.748;2.222;2022-08-19T06:25:35;9.15;;;3.70;;
29344;SDS011;16339;48.748;2.222;2022-08-19T06:28:06;6.05;;;3.30;;
29344;SDS011;16339;48.748;2.222;2022-08-19T06:30:36;8.38;;;3.33;;
29344;SDS011;16339;48.748;2.222;2022-08-19T06:33:07;7.65;;;2.97;;
29344;SDS011;16339;48.748;2.222;2022-08-19T06:41:21;6.47;;;3.30;;
29344;SDS011;16339;48.748;2.222;2022-08-19T06:47:55;5.57;;;2.58;;
29344;SDS011;16339;48.748;2.222;2022-08-19T06:51:34;4.35;;;2.42;;
29344;SDS011;16339;48.748;2.222;2022-08-19T06:57:50;9.87;;;3.03;;
29344;SDS011;16339;48.748;2.222;2022-08-19T07:00:19;4.65;;;3.00;;
29344;SDS011;16339;48.748;2.222;2022-08-19T07:02:49;3.50;;;2.67;;
29344;SDS011;16339;48.748;2.222;2022-08-19T07:08:51;5.90;;;2.72;;
29344;SDS011;16339;48.748;2.222;2022-08-19T07:11:43;8.25;;;2.97;;
29344;SDS011;16339;48.748;2.222;2022-08-19T07:14:18;6.13;;;2.50;;
29344;SDS011;16339;48.748;2.222;2022-08-19T07:16:50;8.00;;;2.40;;
29344;SDS011;16339;48.748;2.222;2022-08-19T07:19:21;4.60;;;2.70;;
29344;SDS011;16339;48.748;2.222;2022-08-19T07:21:52;7.03;;;2.63;;
29344;SDS011;16339;48.748;2.222;2022-08-19T07:24:30;9.00;;;2.70;;
29344;SDS011;16339;48.748;2.222;2022-08-19T07:30:40;7.13;;;2.78;;
29344;SDS011;16339;48.748;2.222;2022-08-19T07:33:15;8.32;;;2.50;;
29344;SDS011;16339;48.748;2.222;2022-08-19T07:35:52;8.25;;;2.58;;
29344;SDS011;16339;48.748;2.222;2022-08-19T07:38:21;3.88;;;2.58;;
29344;SDS011;16339;48.748;2.222;2022-08-19T07:40:53;8.77;;;2.50;;
29344;SDS011;16339;48.748;2.222;2022-08-19T07:43:22;4.03;;;2.25;;
29344;SDS011;16339;48.748;2.222;2022-08-19T07:45:51;9.38;;;2.85;;
29344;SDS011;16339;48.748;2.222;2022-08-19T07:48:25;7.55;;;2.30;;
29344;SDS011;16339;48.748;2.222;2022-08-19T07:50:56;9.07;;;2.47;;
29344;SDS011;16339;48.748;2.222;2022-08-19T07:53:28;5.28;;;2.50;;
29344;SDS011;16339;48.748;2.222;2022-08-19T07:56:01;7.82;;;2.40;;
29344;SDS011;16339;48.748;2.222;2022-08-19T07:58:36;5.18;;;2.90;;
29344;SDS011;16339;48.748;2.222;2022-08-19T08:01:07;3.75;;;2.20;;
29344;SDS011;16339;48.748;2.222;2022-08-19T08:03:38;5.13;;;2.17;;
29344;SDS011;16339;48.748;2.222;2022-08-19T08:09:00;7.93;;;2.33;;
29344;SDS011;16339;48.748;2.222;2022-08-19T08:11:46;4.50;;;2.30;;
29344;SDS011;16339;48.748;2.222;2022-08-19T08:14:18;8.10;;;2.22;;
29344;SDS011;16339;48.748;2.222;2022-08-19T08:16:49;4.30;;;2.17;;
29344;SDS011;16339;48.748;2.222;2022-08-19T08:19:21;5.43;;;2.00;;
29344;SDS011;16339;48.748;2.222;2022-08-19T08:21:51;7.07;;;2.50;;
29344;SDS011;16339;48.748;2.222;2022-08-19T08:24:23;4.57;;;2.30;;
29344;SDS011;16339;48.748;2.222;2022-08-19T08:36:36;4.57;;;1.95;;
29344;SDS011;16339;48.748;2.222;2022-08-19T08:39:05;4.90;;;2.00;;
29344;SDS011;16339;48.748;2.222;2022-08-19T08:41:40;5.53;;;1.90;;
29344;SDS011;16339;48.748;2.222;2022-08-19T08:44:17;3.25;;;2.10;;
29344;SDS011;16339;48.748;2.222;2022-08-19T08:47:09;9.80;;;2.13;;
29344;SDS011;16339;48.748;2.222;2022-08-19T08:49:48;3.67;;;1.85;;
29344;SDS011;16339;48.748;2.222;2022-08-19T08:52:21;4.78;;;2.35;;
29344;SDS011;16339;48.748;2.222;2022-08-19T08:54:53;2.85;;;1.88;;
29344;SDS011;16339;48.748;2.222;2022-08-19T08:57:25;4.38;;;1.75;;
29344;SDS011;16339;48.748;2.222;2022-08-19T09:00:00;6.47;;;2.17;;
29344;SDS011;16339;48.748;2.222;2022-08-19T09:02:36;9.43;;;1.80;;
29344;SDS011;16339;48.748;2.222;2022-08-19T09:05:09;4.15;;;1.65;;
29344;SDS011;16339;48.748;2.222;2022-08-19T09:07:40;1.80;;;1.70;;
29344;SDS011;16339;48.748;2.222;2022-08-19T09:10:18;6.55;;;2.30;;
29344;SDS011;16339;48.748;2.222;2022-08-19T09:12:53;5.28;;;2.05;;
29344;SDS011;16339;48.748;2.222;2022-08-19T09:15:29;2.17;;;1.80;;
29344;SDS011;16339;48.748;2.222;2022-08-19T09:18:03;4.70;;;1.70;;
29344;SDS011;16339;48.748;2.222;2022-08-19T09:20:35;8.18;;;1.90;;
29344;SDS011;16339;48.748;2.222;2022-08-19T09:23:03;3.67;;;2.28;;
29344;SDS011;16339;48.748;2.222;2022-08-19T09:25:35;6.03;;;1.90;;
29344;SDS011;16339;48.748;2.222;2022-08-19T09:28:05;3.30;;;1.90;;
29344;SDS011;16339;48.748;2.222;2022-08-19T09:30:39;3.70;;;1.42;;
29344;SDS011;16339;48.748;2.222;2022-08-19T09:33:09;3.20;;;1.65;;
29344;SDS011;16339;48.748;2.222;2022-08-19T09:35:43;3.85;;;1.80;;
29344;SDS011;16339;48.748;2.222;2022-08-19T09:38:12;4.13;;;1.60;;
29344;SDS011;16339;48.748;2.222;2022-08-19T09:40:46;2.55;;;1.63;;
29344;SDS011;16339;48.748;2.222;2022-08-19T09:43:16;1.58;;;1.40;;
29344;SDS011;16339;48.748;2.222;2022-08-19T09:45:45;2.85;;;1.40;;
29344;SDS011;16339;48.748;2.222;2022-08-19T09:48:34;2.78;;;1.70;;
29344;SDS011;16339;48.748;2.222;2022-08-19T09:51:14;3.85;;;1.65;;
29344;SDS011;16339;48.748;2.222;2022-08-19T09:53:45;2.90;;;1.45;;
29344;SDS011;16339;48.748;2.222;2022-08-19T09:56:15;2.55;;;1.55;;
29344;SDS011;16339;48.748;2.222;2022-08-19T09:58:46;5.28;;;1.55;;
29344;SDS011;16339;48.748;2.222;2022-08-19T10:01:16;1.20;;;1.08;;
29344;SDS011;16339;48.748;2.222;2022-08-19T10:03:47;2.33;;;1.27;;
29344;SDS011;16339;48.748;2.222;2022-08-19T10:06:20;2.10;;;1.20;;
29344;SDS011;16339;48.748;2.222;2022-08-19T10:08:50;4.78;;;1.40;;
29344;SDS011;16339;48.748;2.222;2022-08-19T10:11:19;3.78;;;1.13;;
29344;SDS011;16339;48.748;2.222;2022-08-19T10:13:53;3.63;;;1.23;;
29344;SDS011;16339;48.748;2.222;2022-08-19T10:16:22;2.28;;;1.40;;
29344;SDS011;16339;48.748;2.222;2022-08-19T10:18:54;1.52;;;1.30;;
29344;SDS011;16339;48.748;2.222;2022-08-19T10:21:27;1.48;;;1.10;;
29344;SDS011;16339;48.748;2.222;2022-08-19T10:24:28;2.80;;;1.48;;
29344;SDS011;16339;48.748;2.222;2022-08-19T10:26:49;3.53;;;1.40;;
29344;SDS011;16339;48.748;2.222;2022-08-19T10:29:18;1.30;;;1.02;;
29344;SDS011;16339;48.748;2.222;2022-08-19T10:31:46;5.25;;;1.30;;
29344;SDS011;16339;48.748;2.222;2022-08-19T10:34:15;3.38;;;1.23;;
29344;SDS011;16339;48.748;2.222;2022-08-19T10:36:47;2.65;;;1.40;;
29344;SDS011;16339;48.748;2.222;2022-08-19T10:39:25;4.25;;;1.40;;
29344;SDS011;16339;48.748;2.222;2022-08-19T10:41:55;4.30;;;1.50;;
29344;SDS011;16339;48.748;2.222;2022-08-19T10:44:24;1.73;;;1.40;;
29344;SDS011;16339;48.748;2.222;2022-08-19T10:46:58;4.95;;;1.30;;
29344;SDS011;16339;48.748;2.222;2022-08-19T10:49:27;2.47;;;1.67;;
29344;SDS011;16339;48.748;2.222;2022-08-19T10:51:59;2.10;;;1.40;;
29344;SDS011;16339;48.748;2.222;2022-08-19T10:54:41;5.32;;;2.35;;
29344;SDS011;16339;48.748;2.222;2022-08-19T10:57:28;4.13;;;1.42;;
29344;SDS011;16339;48.748;2.222;2022-08-19T11:00:04;5.53;;;1.60;;
29344;SDS011;16339;48.748;2.222;2022-08-19T11:02:34;2.60;;;1.38;;
29344;SDS011;16339;48.748;2.222;2022-08-19T11:05:04;1.75;;;1.60;;
29344;SDS011;16339;48.748;2.222;2022-08-19T11:07:43;3.22;;;1.73;;
29344;SDS011;16339;48.748;2.222;2022-08-19T11:10:15;2.50;;;1.27;;
29344;SDS011;16339;48.748;2.222;2022-08-19T11:12:44;3.72;;;1.50;;
29344;SDS011;16339;48.748;2.222;2022-08-19T11:15:15;4.13;;;1.60;;
29344;SDS011;16339;48.748;2.222;2022-08-19T11:17:44;3.55;;;1.40;;
29344;SDS011;16339;48.748;2.222;2022-08-19T11:20:17;1.65;;;1.45;;
29344;SDS011;16339;48.748;2.222;2022-08-19T11:22:54;3.10;;;1.50;;
29344;SDS011;16339;48.748;2.222;2022-08-19T11:25:22;4.15;;;1.55;;
29344;SDS011;16339;48.748;2.222;2022-08-19T11:27:59;2.42;;;1.60;;
29344;SDS011;16339;48.748;2.222;2022-08-19T11:30:31;4.22;;;1.80;;
29344;SDS011;16339;48.748;2.222;2022-08-19T11:33:00;1.67;;;1.50;;
29344;SDS011;16339;48.748;2.222;2022-08-19T11:35:28;6.13;;;1.70;;
29344;SDS011;16339;48.748;2.222;2022-08-19T11:38:00;2.20;;;1.90;;
29344;SDS011;16339;48.748;2.222;2022-08-19T11:40:29;3.15;;;1.48;;
29344;SDS011;16339;48.748;2.222;2022-08-19T11:42:58;3.65;;;1.30;;
29344;SDS011;16339;48.748;2.222;2022-08-19T11:45:30;3.67;;;1.20;;
29344;SDS011;16339;48.748;2.222;2022-08-19T11:47:59;4.60;;;1.27;;
29344;SDS011;16339;48.748;2.222;2022-08-19T11:50:28;1.85;;;1.33;;
29344;SDS011;16339;48.748;2.222;2022-08-19T11:53:09;3.38;;;1.15;;
29344;SDS011;16339;48.748;2.222;2022-08-19T11:55:37;2.47;;;1.33;;
29344;SDS011;16339;48.748;2.222;2022-08-19T11:58:07;1.33;;;1.10;;
29344;SDS011;16339;48.748;2.222;2022-08-19T12:00:37;2.10;;;1.30;;
29344;SDS011;16339;48.748;2.222;2022-08-19T12:03:06;3.20;;;1.42;;
29344;SDS011;16339;48.748;2.222;2022-08-19T12:05:36;1.95;;;1.23;;
29344;SDS011;16339;48.748;2.222;2022-08-19T12:08:05;2.75;;;1.48;;
29344;SDS011;16339;48.748;2.222;2022-08-19T12:10:38;2.80;;;1.30;;
29344;SDS011;16339;48.748;2.222;2022-08-19T12:13:07;2.55;;;1.30;;
29344;SDS011;16339;48.748;2.222;2022-08-19T12:15:38;2.13;;;1.20;;
29344;SDS011;16339;48.748;2.222;2022-08-19T12:18:08;3.97;;;1.40;;
29344;SDS011;16339;48.748;2.222;2022-08-19T12:20:39;2.72;;;1.38;;
29344;SDS011;16339;48.748;2.222;2022-08-19T12:23:13;2.30;;;1.50;;
29344;SDS011;16339;48.748;2.222;2022-08-19T12:25:43;3.28;;;1.20;;
29344;SDS011;16339;48.748;2.222;2022-08-19T12:28:20;2.22;;;1.33;;
29344;SDS011;16339;48.748;2.222;2022-08-19T12:30:50;2.33;;;1.10;;
29344;SDS011;16339;48.748;2.222;2022-08-19T12:33:19;5.53;;;1.00;;
29344;SDS011;16339;48.748;2.222;2022-08-19T12:35:52;3.30;;;1.30;;
29344;SDS011;16339;48.748;2.222;2022-08-19T12:38:24;1.70;;;1.23;;
29344;SDS011;16339;48.748;2.222;2022-08-19T12:40:54;1.42;;;1.00;;
29344;SDS011;16339;48.748;2.222;2022-08-19T12:43:22;2.80;;;1.27;;
29344;SDS011;16339;48.748;2.222;2022-08-19T12:45:51;3.65;;;1.08;;
29344;SDS011;16339;48.748;2.222;2022-08-19T12:48:20;1.98;;;1.13;;
29344;SDS011;16339;48.748;2.222;2022-08-19T12:50:55;5.80;;;1.20;;
29344;SDS011;16339;48.748;2.222;2022-08-19T12:53:36;0.98;;;0.90;;
29344;SDS011;16339;48.748;2.222;2022-08-19T12:56:05;1.13;;;1.02;;
29344;SDS011;16339;48.748;2.222;2022-08-19T12:58:35;2.85;;;1.00;;
29344;SDS011;16339;48.748;2.222;2022-08-19T13:01:06;1.42;;;0.88;;
29344;SDS011;16339;48.748;2.222;2022-08-19T13:03:41;4.68;;;1.02;;
29344;SDS011;16339;48.748;2.222;2022-08-19T13:06:10;2.40;;;1.45;;
29344;SDS011;16339;48.748;2.222;2022-08-19T13:08:41;2.78;;;0.98;;
29344;SDS011;16339;48.748;2.222;2022-08-19T13:11:10;3.05;;;1.10;;
29344;SDS011;16339;48.748;2.222;2022-08-19T13:13:40;1.10;;;0.93;;
29344;SDS011;16339;48.748;2.222;2022-08-19T13:16:10;2.75;;;1.13;;
29344;SDS011;16339;48.748;2.222;2022-08-19T13:18:40;3.08;;;1.30;;
29344;SDS011;16339;48.748;2.222;2022-08-19T13:21:10;2.78;;;1.20;;
29344;SDS011;16339;48.748;2.222;2022-08-19T13:23:42;2.25;;;1.10;;
29344;SDS011;16339;48.748;2.222;2022-08-19T13:26:11;3.22;;;1.55;;
29344;SDS011;16339;48.748;2.222;2022-08-19T13:28:43;3.53;;;1.08;;
29344;SDS011;16339;48.748;2.222;2022-08-19T13:31:25;1.90;;;1.45;;
29344;SDS011;16339;48.748;2.222;2022-08-19T13:34:07;3.28;;;1.20;;
29344;SDS011;16339;48.748;2.222;2022-08-19T13:36:37;2.38;;;1.23;;
29344;SDS011;16339;48.748;2.222;2022-08-19T13:39:09;3.33;;;1.35;;
29344;SDS011;16339;48.748;2.222;2022-08-19T13:41:42;2.38;;;1.38;;
29344;SDS011;16339;48.748;2.222;2022-08-19T13:44:12;3.17;;;1.50;;
29344;SDS011;16339;48.748;2.222;2022-08-19T13:46:43;1.85;;;1.38;;
29344;SDS011;16339;48.748;2.222;2022-08-19T13:49:16;1.42;;;1.33;;
29344;SDS011;16339;48.748;2.222;2022-08-19T13:51:45;2.25;;;1.40;;
29344;SDS011;16339;48.748;2.222;2022-08-19T13:54:17;5.10;;;1.40;;
29344;SDS011;16339;48.748;2.222;2022-08-19T13:56:45;7.43;;;1.30;;
29344;SDS011;16339;48.748;2.222;2022-08-19T13:59:14;4.00;;;1.30;;
29344;SDS011;16339;48.748;2.222;2022-08-19T14:01:43;2.85;;;1.30;;
29344;SDS011;16339;48.748;2.222;2022-08-19T14:04:12;4.45;;;1.63;;
29344;SDS011;16339;48.748;2.222;2022-08-19T14:06:41;1.90;;;1.33;;
29344;SDS011;16339;48.748;2.222;2022-08-19T14:09:10;2.67;;;1.35;;
29344;SDS011;16339;48.748;2.222;2022-08-19T14:11:41;3.47;;;1.40;;
29344;SDS011;16339;48.748;2.222;2022-08-19T14:14:11;1.65;;;1.55;;
29344;SDS011;16339;48.748;2.222;2022-08-19T14:16:40;6.72;;;2.05;;
29344;SDS011;16339;48.748;2.222;2022-08-19T14:19:09;2.85;;;1.33;;
29344;SDS011;16339;48.748;2.222;2022-08-19T14:21:37;4.20;;;1.33;;
29344;SDS011;16339;48.748;2.222;2022-08-19T14:24:06;1.70;;;1.00;;
29344;SDS011;16339;48.748;2.222;2022-08-19T14:26:35;6.85;;;1.42;;
29344;SDS011;16339;48.748;2.222;2022-08-19T14:29:06;2.00;;;1.10;;
29344;SDS011;16339;48.748;2.222;2022-08-19T14:31:35;2.83;;;1.40;;
29344;SDS011;16339;48.748;2.222;2022-08-19T14:34:05;1.65;;;1.48;;
29344;SDS011;16339;48.748;2.222;2022-08-19T14:36:37;7.35;;;1.50;;
29344;SDS011;16339;48.748;2.222;2022-08-19T14:39:07;4.35;;;1.40;;
29344;SDS011;16339;48.748;2.222;2022-08-19T14:41:36;4.03;;;1.38;;
29344;SDS011;16339;48.748;2.222;2022-08-19T14:44:11;2.60;;;1.40;;
29344;SDS011;16339;48.748;2.222;2022-08-19T14:46:40;3.35;;;1.35;;
29344;SDS011;16339;48.748;2.222;2022-08-19T14:49:10;2.28;;;1.48;;
29344;SDS011;16339;48.748;2.222;2022-08-19T14:51:38;6.50;;;1.60;;
29344;SDS011;16339;48.748;2.222;2022-08-19T14:54:08;3.08;;;1.70;;
29344;SDS011;16339;48.748;2.222;2022-08-19T14:56:36;5.43;;;1.30;;
29344;SDS011;16339;48.748;2.222;2022-08-19T14:59:11;4.80;;;1.98;;
29344;SDS011;16339;48.748;2.222;2022-08-19T15:01:39;2.80;;;1.83;;
29344;SDS011;16339;48.748;2.222;2022-08-19T15:04:08;5.10;;;1.75;;
29344;SDS011;16339;48.748;2.222;2022-08-19T15:06:37;2.85;;;1.00;;
29344;SDS011;16339;48.748;2.222;2022-08-19T15:09:07;4.90;;;1.35;;
29344;SDS011;16339;48.748;2.222;2022-08-19T15:11:36;2.95;;;1.25;;
29344;SDS011;16339;48.748;2.222;2022-08-19T15:14:05;3.97;;;1.05;;
29344;SDS011;16339;48.748;2.222;2022-08-19T15:16:36;1.88;;;1.00;;
29344;SDS011;16339;48.748;2.222;2022-08-19T15:19:06;4.15;;;1.40;;
29344;SDS011;16339;48.748;2.222;2022-08-19T15:21:36;1.90;;;1.33;;
29344;SDS011;16339;48.748;2.222;2022-08-19T15:24:05;1.65;;;1.13;;
29344;SDS011;16339;48.748;2.222;2022-08-19T15:26:34;3.72;;;1.50;;
29344;SDS011;16339;48.748;2.222;2022-08-19T15:29:03;1.45;;;1.10;;
29344;SDS011;16339;48.748;2.222;2022-08-19T15:31:33;2.42;;;1.30;;
29344;SDS011;16339;48.748;2.222;2022-08-19T15:34:04;2.90;;;1.35;;
29344;SDS011;16339;48.748;2.222;2022-08-19T15:36:33;1.63;;;1.23;;
29344;SDS011;16339;48.748;2.222;2022-08-19T15:39:03;4.10;;;1.20;;
29344;SDS011;16339;48.748;2.222;2022-08-19T15:44:06;3.22;;;1.17;;
29344;SDS011;16339;48.748;2.222;2022-08-19T15:46:38;3.55;;;1.40;;
29344;SDS011;16339;48.748;2.222;2022-08-19T15:49:12;7.53;;;1.23;;
29344;SDS011;16339;48.748;2.222;2022-08-19T15:51:43;8.30;;;1.17;;
29344;SDS011;16339;48.748;2.222;2022-08-19T15:54:14;1.80;;;1.13;;
29344;SDS011;16339;48.748;2.222;2022-08-19T15:56:46;6.57;;;1.17;;
29344;SDS011;16339;48.748;2.222;2022-08-19T15:59:27;1.23;;;1.00;;
29344;SDS011;16339;48.748;2.222;2022-08-19T16:02:10;1.92;;;0.90;;